createdAt,value
2023-05-01T00:03:44.970Z,14.60
2023-05-01T00:08:47.650Z,14.50
2023-05-01T00:13:49.714Z,14.40
2023-05-01T00:18:52.471Z,14.30
2023-05-01T00:23:55.467Z,14.20
2023-05-01T00:28:58.180Z,14.20
2023-05-01T00:34:00.315Z,14.10
2023-05-01T00:39:02.429Z,14.00
2023-05-01T00:44:04.511Z,14.00
2023-05-01T00:49:06.552Z,14.00
2023-05-01T00:54:08.576Z,14.00
2023-05-01T00:59:10.673Z,14.00
2023-05-01T01:04:13.357Z,13.90
2023-05-01T01:09:21.394Z,13.90
2023-05-01T01:14:43.692Z,13.90
2023-05-01T01:20:06.469Z,13.80
2023-05-01T01:25:28.099Z,13.80
2023-05-01T01:30:30.236Z,13.70
2023-05-01T01:35:33.994Z,13.70
2023-05-01T01:40:44.119Z,13.70
2023-05-01T01:45:47.464Z,13.70
2023-05-01T01:50:52.527Z,13.70
2023-05-01T01:55:55.031Z,13.70
2023-05-01T02:00:57.882Z,13.70
2023-05-01T02:06:00.542Z,13.70
2023-05-01T02:11:03.557Z,13.60
2023-05-01T02:16:06.405Z,13.60
2023-05-01T02:21:09.573Z,13.50
2023-05-01T02:26:16.936Z,13.50
2023-05-01T02:31:19.015Z,13.50
2023-05-01T02:36:21.521Z,13.50
2023-05-01T02:41:25.380Z,13.40
2023-05-01T02:46:28.062Z,13.40
2023-05-01T02:51:33.853Z,13.30
2023-05-01T02:56:36.221Z,13.30
2023-05-01T03:01:39.731Z,13.30
2023-05-01T03:06:41.818Z,13.40
2023-05-01T03:11:44.010Z,13.30
2023-05-01T03:16:46.143Z,13.30
2023-05-01T03:21:48.237Z,13.40
2023-05-01T03:26:50.263Z,13.40
2023-05-01T03:31:52.353Z,13.40
2023-05-01T03:36:54.520Z,13.40
2023-05-01T03:41:57.474Z,13.50
2023-05-01T03:46:59.637Z,13.40
2023-05-01T03:52:02.613Z,13.40
2023-05-01T03:57:04.899Z,13.40
2023-05-01T04:02:06.997Z,13.50
2023-05-01T04:07:09.561Z,13.50
2023-05-01T04:12:11.899Z,13.40
2023-05-01T04:17:14.031Z,13.40
2023-05-01T04:22:16.653Z,13.40
2023-05-01T04:27:19.613Z,13.40
2023-05-01T04:32:21.709Z,13.40
2023-05-01T04:37:23.786Z,13.40
2023-05-01T04:42:30.416Z,13.50
2023-05-01T04:47:32.803Z,13.50
2023-05-01T04:52:35.921Z,13.50
2023-05-01T04:57:38.544Z,13.50
2023-05-01T05:02:41.368Z,13.60
2023-05-01T05:07:45.054Z,13.60
2023-05-01T05:12:59.593Z,13.70
2023-05-01T05:18:03.018Z,13.80
2023-05-01T05:23:07.354Z,13.90
2023-05-01T05:28:10.513Z,13.90
2023-05-01T05:33:13.356Z,14.10
2023-05-01T05:38:15.634Z,14.30
2023-05-01T05:43:18.370Z,14.40
2023-05-01T05:48:20.749Z,14.50
2023-05-01T05:53:25.570Z,14.60
2023-05-01T05:58:28.546Z,14.80
2023-05-01T06:03:30.908Z,14.80
2023-05-01T06:08:35.414Z,14.90
2023-05-01T06:13:39.552Z,15.10
2023-05-01T06:18:42.908Z,15.30
2023-05-01T06:23:46.572Z,15.40
2023-05-01T06:28:49.439Z,15.50
2023-05-01T06:33:51.578Z,15.60
2023-05-01T06:38:54.853Z,15.80
2023-05-01T06:43:58.504Z,16.00
2023-05-01T06:49:00.554Z,16.10
2023-05-01T06:54:02.872Z,16.50
2023-05-01T06:59:05.758Z,16.50
2023-05-01T07:04:08.760Z,16.90
2023-05-01T07:09:11.795Z,17.20
2023-05-01T07:14:13.798Z,17.30
2023-05-01T07:19:15.793Z,17.60
2023-05-01T07:24:17.810Z,17.80
2023-05-01T07:29:19.897Z,17.80
2023-05-01T07:34:21.915Z,18.00
2023-05-01T07:39:23.913Z,18.10
2023-05-01T07:44:26.082Z,18.20
2023-05-01T07:49:28.110Z,18.30
2023-05-01T07:54:30.223Z,18.50
2023-05-01T07:59:32.253Z,18.60
2023-05-01T08:04:34.378Z,18.60
2023-05-01T08:09:36.389Z,18.90
2023-05-01T08:14:38.389Z,19.10
2023-05-01T08:19:40.426Z,19.40
2023-05-01T08:24:42.916Z,19.60
2023-05-01T08:34:47.359Z,19.80
2023-05-01T08:44:54.375Z,20.00
2023-05-01T08:49:57.999Z,20.10
2023-05-01T08:55:01.413Z,20.30
2023-05-01T09:00:05.070Z,20.60
2023-05-01T09:05:08.213Z,20.80
2023-05-01T09:10:11.360Z,21.10
2023-05-01T09:15:13.582Z,21.40
2023-05-01T09:20:15.723Z,21.40
2023-05-01T09:30:31.569Z,22.20
2023-05-01T09:35:47.844Z,22.50
2023-05-01T09:40:50.264Z,22.60
2023-05-01T09:46:01.399Z,22.90
2023-05-01T09:51:19.748Z,22.90
2023-05-01T09:56:21.864Z,23.10
2023-05-01T10:01:50.816Z,23.30
2023-05-01T10:06:53.240Z,23.30
2023-05-01T10:11:57.636Z,23.30
2023-05-01T10:17:00.018Z,23.40
2023-05-01T10:22:02.269Z,23.60
2023-05-01T10:27:05.602Z,23.80
2023-05-01T10:32:08.423Z,24.00
2023-05-01T10:37:18.275Z,24.10
2023-05-01T10:42:20.377Z,24.20
2023-05-01T10:47:27.649Z,24.40
2023-05-01T10:52:29.885Z,24.60
2023-05-01T10:57:41.890Z,24.80
2023-05-01T11:02:43.923Z,25.00
2023-05-01T11:07:46.598Z,25.10
2023-05-01T11:12:51.435Z,25.30
2023-05-01T11:17:53.574Z,25.30
2023-05-01T11:22:56.504Z,25.30
2023-05-01T11:27:59.192Z,25.40
2023-05-01T11:33:01.372Z,25.50
2023-05-01T11:38:03.511Z,25.60
2023-05-01T11:43:06.874Z,25.70
2023-05-01T11:48:16.481Z,25.80
2023-05-01T11:53:18.989Z,25.80
2023-05-01T11:58:31.921Z,25.80
2023-05-01T12:03:43.905Z,25.70
2023-05-01T12:08:48.473Z,25.70
2023-05-01T12:13:50.671Z,25.60
2023-05-01T12:18:53.313Z,25.70
2023-05-01T12:23:55.404Z,25.70
2023-05-01T12:28:57.409Z,26.00
2023-05-01T12:34:00.673Z,26.00
2023-05-01T12:39:07.154Z,26.20
2023-05-01T12:44:22.738Z,26.30
2023-05-01T12:49:25.471Z,26.40
2023-05-01T12:54:29.178Z,26.30
2023-05-01T12:59:31.434Z,26.20
2023-05-01T13:04:34.498Z,26.10
2023-05-01T13:09:36.899Z,25.90
2023-05-01T13:14:40.324Z,25.70
2023-05-01T13:19:42.366Z,25.70
2023-05-01T13:24:47.267Z,25.70
2023-05-01T13:29:57.866Z,25.90
2023-05-01T13:35:03.082Z,26.10
2023-05-01T13:40:05.658Z,26.30
2023-05-01T13:45:07.871Z,26.60
2023-05-01T13:50:10.906Z,27.10
2023-05-01T13:55:13.612Z,27.80
2023-05-01T14:05:24.028Z,28.20
2023-05-01T14:10:27.757Z,28.10
2023-05-01T14:20:35.316Z,27.90
2023-05-01T14:25:38.304Z,27.60
2023-05-01T14:30:41.107Z,27.30
2023-05-01T14:35:50.892Z,26.90
2023-05-01T14:40:52.954Z,26.40
2023-05-01T14:45:55.039Z,26.20
2023-05-01T14:50:59.384Z,26.00
2023-05-01T14:56:01.441Z,25.80
2023-05-01T15:01:03.761Z,25.70
2023-05-01T15:06:06.503Z,26.10
2023-05-01T15:11:08.748Z,26.40
2023-05-01T15:16:13.756Z,27.10
2023-05-01T15:21:15.900Z,27.30
2023-05-01T15:26:17.920Z,27.60
2023-05-01T15:31:19.983Z,27.70
2023-05-01T15:36:22.100Z,27.80
2023-05-01T15:41:24.137Z,28.10
2023-05-01T15:46:27.248Z,28.60
2023-05-01T15:51:32.371Z,28.60
2023-05-01T15:56:36.419Z,29.70
2023-05-01T16:01:38.604Z,29.90
2023-05-01T16:06:41.192Z,29.80
2023-05-01T16:11:44.005Z,29.90
2023-05-01T16:16:46.225Z,30.30
2023-05-01T16:21:48.498Z,30.80
2023-05-01T16:26:50.903Z,31.10
2023-05-01T16:31:53.286Z,31.20
2023-05-01T16:36:56.394Z,30.80
2023-05-01T16:41:58.490Z,30.20
2023-05-01T16:47:00.763Z,29.80
2023-05-01T16:52:04.254Z,29.50
2023-05-01T16:57:07.272Z,28.50
2023-05-01T17:02:09.587Z,28.30
2023-05-01T17:07:12.021Z,27.30
2023-05-01T17:12:14.906Z,27.00
2023-05-01T17:17:17.810Z,26.80
2023-05-01T17:22:19.956Z,26.30
2023-05-01T17:27:21.942Z,25.70
2023-05-01T17:32:35.779Z,25.30
2023-05-01T17:37:41.860Z,24.80
2023-05-01T17:42:44.519Z,24.70
2023-05-01T17:47:46.701Z,23.90
2023-05-01T17:52:48.762Z,23.50
2023-05-01T17:57:52.180Z,23.10
2023-05-01T18:02:54.541Z,23.10
2023-05-01T18:07:56.637Z,22.30
2023-05-01T18:12:58.683Z,21.90
2023-05-01T18:18:00.878Z,21.50
2023-05-01T18:23:04.017Z,21.00
2023-05-01T18:28:06.538Z,20.80
2023-05-01T18:33:08.661Z,20.60
2023-05-01T18:38:10.709Z,20.50
2023-05-01T18:43:14.189Z,20.30
2023-05-01T18:48:16.254Z,20.10
2023-05-01T18:53:18.354Z,20.00
2023-05-01T19:08:25.711Z,19.60
2023-05-01T19:13:27.728Z,19.30
2023-05-01T19:18:29.754Z,19.20
2023-05-01T19:23:35.024Z,19.10
2023-05-01T19:28:38.611Z,19.10
2023-05-01T19:33:41.061Z,19.10
2023-05-01T19:38:45.388Z,19.00
2023-05-01T19:43:47.510Z,18.90
2023-05-01T19:48:50.511Z,18.70
2023-05-01T19:53:52.547Z,18.60
2023-05-01T19:58:55.124Z,18.70
2023-05-01T20:03:57.209Z,18.60
2023-05-01T20:08:59.273Z,18.60
2023-05-01T20:14:03.527Z,18.60
2023-05-01T20:19:06.256Z,18.60
2023-05-01T20:24:08.250Z,18.50
2023-05-01T20:29:10.297Z,18.50
2023-05-01T20:34:12.320Z,18.40
2023-05-01T20:39:14.390Z,18.40
2023-05-01T20:44:16.425Z,18.40
2023-05-01T20:49:20.368Z,18.40
2023-05-01T20:54:22.578Z,18.40
2023-05-01T20:59:24.661Z,18.30
2023-05-01T21:04:26.702Z,18.20
2023-05-01T21:09:29.023Z,18.10
2023-05-01T21:14:31.055Z,18.10
2023-05-01T21:19:43.450Z,18.00
2023-05-01T21:24:47.788Z,17.90
2023-05-01T21:29:52.878Z,17.90
2023-05-01T21:34:54.992Z,17.90
2023-05-01T21:40:00.799Z,17.80
2023-05-01T21:45:10.294Z,17.80
2023-05-01T21:50:13.332Z,17.80
2023-05-01T22:00:19.022Z,17.60
2023-05-01T22:05:22.602Z,17.60
2023-05-01T22:10:25.075Z,17.50
2023-05-01T22:15:27.100Z,17.50
2023-05-01T22:20:29.378Z,17.40
2023-05-01T22:25:31.699Z,17.30
2023-05-01T22:30:34.808Z,17.10
2023-05-01T22:35:36.867Z,17.00
2023-05-01T22:40:38.933Z,17.00
2023-05-01T22:45:40.948Z,16.80
2023-05-01T22:50:42.965Z,16.70
2023-05-01T22:55:45.005Z,16.60
2023-05-01T23:00:47.071Z,16.50
2023-05-01T23:05:49.111Z,16.40
2023-05-01T23:10:51.230Z,16.30
2023-05-01T23:15:53.732Z,16.30
2023-05-01T23:20:56.066Z,16.20
2023-05-01T23:25:58.247Z,16.10
2023-05-01T23:31:01.390Z,16.00
2023-05-01T23:36:03.864Z,15.90
2023-05-01T23:41:06.683Z,15.80
2023-05-01T23:46:08.725Z,15.60
2023-05-01T23:51:10.761Z,15.50
2023-05-01T23:56:12.822Z,15.30
